Time;durP1;ratioP1;P1;durP2;ratioP2;P2;SDS_P1;SDS_P2;PMS_P1;PMS_P2;Temp;Humidity;BMP_temperature;BMP_pressure;BME280_temperature;BME280_humidity;BME280_pressure;Samples;Min_cycle;Max_cycle;Signal;HPM_P1;HPM_P2
2022/07/22 00:00:02;;;;;;;10.67;8.80;;;16.40;99.90;;;;;;4964658;28;20238;-76
2022/07/22 00:02:29;;;;;;;10.47;8.70;;;16.50;99.90;;;;;;4957312;28;20290;-76
2022/07/22 00:04:56;;;;;;;10.80;9.20;;;16.40;99.90;;;;;;4953393;29;20234;-76
2022/07/22 00:07:24;;;;;;;13.07;9.97;;;16.30;99.90;;;;;;4954292;29;20234;-76
2022/07/22 00:09:51;;;;;;;11.33;9.10;;;16.30;99.90;;;;;;4953971;29;20265;-76
2022/07/22 00:12:18;;;;;;;11.53;9.47;;;16.30;99.90;;;;;;4959671;28;20334;-76
2022/07/22 00:14:45;;;;;;;11.50;9.37;;;16.30;99.90;;;;;;4957838;28;20235;-76
2022/07/22 00:17:12;;;;;;;12.33;9.83;;;16.40;99.90;;;;;;4953757;28;20290;-76
2022/07/22 00:19:39;;;;;;;11.83;9.80;;;16.30;99.90;;;;;;4954275;28;20290;-76
2022/07/22 00:22:06;;;;;;;13.93;9.67;;;16.40;99.90;;;;;;4953966;29;20366;-76
2022/07/22 00:24:34;;;;;;;13.47;10.50;;;16.40;99.90;;;;;;4953855;28;20241;-76
2022/07/22 00:27:01;;;;;;;11.50;9.90;;;16.30;99.90;;;;;;4952946;29;20294;-76
2022/07/22 00:29:28;;;;;;;15.07;9.90;;;16.00;99.90;;;;;;4954338;29;20595;-76
2022/07/22 00:31:55;;;;;;;12.37;10.30;;;16.20;99.90;;;;;;4954117;29;20237;-77
2022/07/22 00:34:22;;;;;;;14.33;9.87;;;16.20;99.90;;;;;;4954088;29;20655;-76
2022/07/22 00:36:48;;;;;;;14.00;10.63;;;16.10;99.90;;;;;;4953722;29;20246;-76
2022/07/22 00:39:16;;;;;;;13.57;10.07;;;16.20;99.90;;;;;;4953710;28;20694;-76
2022/07/22 00:41:44;;;;;;;12.17;10.03;;;16.20;99.90;;;;;;4959635;28;20576;-77
2022/07/22 00:44:11;;;;;;;12.10;10.30;;;16.20;99.90;;;;;;4953875;29;20230;-76
2022/07/22 00:46:38;;;;;;;12.23;10.50;;;16.00;99.90;;;;;;4953954;29;20207;-76
2022/07/22 00:49:07;;;;;;;14.20;10.03;;;16.10;99.90;;;;;;4953260;29;20229;-76
2022/07/22 00:51:35;;;;;;;12.67;10.40;;;16.10;99.90;;;;;;4954129;29;20199;-76
2022/07/22 00:54:03;;;;;;;13.07;9.77;;;16.00;99.90;;;;;;4954339;29;20303;-76
2022/07/22 00:56:30;;;;;;;12.17;9.90;;;16.00;99.90;;;;;;4953149;28;20214;-77
2022/07/22 00:59:01;;;;;;;13.53;9.90;;;16.10;99.90;;;;;;4956544;28;20273;-76
2022/07/22 01:01:28;;;;;;;11.20;9.97;;;16.10;99.90;;;;;;4972901;28;20628;-77
2022/07/22 01:03:55;;;;;;;14.47;10.03;;;16.10;99.90;;;;;;4962213;28;20255;-76
2022/07/22 01:06:22;;;;;;;12.10;9.50;;;16.10;99.90;;;;;;4953869;28;20230;-77
2022/07/22 01:08:50;;;;;;;12.53;10.00;;;16.00;99.90;;;;;;4953778;29;20313;-76
2022/07/22 01:11:19;;;;;;;13.53;10.47;;;16.00;99.90;;;;;;4952902;29;20255;-76
2022/07/22 01:13:47;;;;;;;14.37;10.13;;;16.00;99.90;;;;;;4953811;29;20239;-76
2022/07/22 01:16:17;;;;;;;13.13;10.30;;;16.00;99.90;;;;;;4953864;28;20246;-76
2022/07/22 01:18:45;;;;;;;14.87;10.53;;;16.00;99.90;;;;;;4952967;28;20674;-76
2022/07/22 01:21:15;;;;;;;12.57;9.70;;;16.00;99.90;;;;;;4953837;29;20266;-77
2022/07/22 01:23:42;;;;;;;16.03;10.37;;;15.90;99.90;;;;;;4953775;28;20282;-76
2022/07/22 01:26:09;;;;;;;12.37;9.70;;;16.00;99.90;;;;;;4956789;29;20762;-76
2022/07/22 01:28:36;;;;;;;13.63;10.87;;;16.00;99.90;;;;;;4956666;29;20785;-76
2022/07/22 01:31:04;;;;;;;12.43;10.40;;;16.00;99.90;;;;;;4956851;29;20291;-76
2022/07/22 01:33:31;;;;;;;11.63;10.43;;;16.00;99.90;;;;;;4956288;28;20282;-76
2022/07/22 01:35:58;;;;;;;13.60;10.10;;;15.90;99.90;;;;;;4956757;28;20808;-76
2022/07/22 01:38:27;;;;;;;12.33;10.60;;;15.90;99.90;;;;;;4970014;28;20340;-76
2022/07/22 01:40:54;;;;;;;12.03;10.40;;;16.00;99.90;;;;;;4956792;29;20294;-76
2022/07/22 01:43:21;;;;;;;14.77;10.67;;;15.90;99.90;;;;;;4956471;29;20246;-77
2022/07/22 01:45:50;;;;;;;13.03;10.67;;;15.90;99.90;;;;;;4968737;28;20203;-77
2022/07/22 01:48:18;;;;;;;13.70;11.03;;;16.00;99.90;;;;;;4957394;28;20207;-76
2022/07/22 01:50:45;;;;;;;11.97;10.60;;;16.00;99.90;;;;;;4976232;28;20206;-76
2022/07/22 01:53:13;;;;;;;14.00;11.07;;;16.10;99.90;;;;;;4976144;28;20580;-76
2022/07/22 01:55:42;;;;;;;12.30;10.73;;;16.10;99.90;;;;;;4958900;28;20238;-77
2022/07/22 01:58:09;;;;;;;11.43;10.23;;;16.20;99.90;;;;;;4929389;29;20243;-76
2022/07/22 02:00:37;;;;;;;11.33;10.17;;;16.20;99.90;;;;;;4932658;29;20252;-77
2022/07/22 02:03:04;;;;;;;12.67;11.33;;;16.20;99.90;;;;;;4937149;29;20284;-76
2022/07/22 02:05:31;;;;;;;14.93;11.30;;;16.20;99.90;;;;;;4936980;29;20268;-76
2022/07/22 02:08:01;;;;;;;13.87;11.13;;;16.20;99.90;;;;;;4936725;29;20242;-76
2022/07/22 02:10:28;;;;;;;14.43;11.60;;;16.80;99.90;;;;;;4936913;29;20227;-76
2022/07/22 02:12:57;;;;;;;15.23;11.07;;;16.20;99.90;;;;;;4937089;29;20626;-77
2022/07/22 02:15:24;;;;;;;12.40;10.70;;;16.20;99.90;;;;;;4936902;29;20246;-77
2022/07/22 02:17:51;;;;;;;14.17;11.33;;;16.20;99.90;;;;;;4936729;29;20246;-76
2022/07/22 02:20:18;;;;;;;13.80;10.70;;;16.30;99.90;;;;;;4947970;29;20286;-77
2022/07/22 02:22:45;;;;;;;14.77;11.40;;;16.20;99.90;;;;;;4948523;29;20238;-76
2022/07/22 02:25:12;;;;;;;13.23;11.23;;;16.30;99.90;;;;;;4936966;29;20235;-77
2022/07/22 02:27:39;;;;;;;13.17;10.90;;;16.20;99.90;;;;;;4936968;29;20242;-76
2022/07/22 02:30:09;;;;;;;11.53;10.40;;;16.30;99.90;;;;;;4936662;29;20238;-77
2022/07/22 02:32:36;;;;;;;13.13;11.67;;;16.20;99.90;;;;;;4936814;29;20587;-76
2022/07/22 02:35:04;;;;;;;13.37;11.07;;;16.20;99.90;;;;;;4935923;29;20726;-77
2022/07/22 02:37:31;;;;;;;15.07;11.90;;;16.20;99.90;;;;;;4935257;29;20588;-77
2022/07/22 02:39:58;;;;;;;13.33;10.97;;;16.10;99.90;;;;;;4937001;29;20319;-77
2022/07/22 02:42:25;;;;;;;13.47;10.70;;;16.10;99.90;;;;;;4936267;29;20242;-76
2022/07/22 02:44:52;;;;;;;14.40;11.40;;;16.10;99.90;;;;;;4935762;29;20258;-76
2022/07/22 02:47:20;;;;;;;13.33;11.07;;;16.10;99.90;;;;;;4935621;29;20334;-76
2022/07/22 02:49:47;;;;;;;14.43;11.70;;;16.10;99.90;;;;;;4935999;29;20232;-76
2022/07/22 02:52:14;;;;;;;14.40;11.97;;;16.10;99.90;;;;;;4935390;29;20744;-77
2022/07/22 02:54:41;;;;;;;12.70;11.33;;;16.10;99.90;;;;;;4936404;29;20283;-76
2022/07/22 02:57:08;;;;;;;14.70;11.10;;;16.10;99.90;;;;;;4936044;29;20585;-77
2022/07/22 02:59:35;;;;;;;15.63;11.80;;;16.00;99.90;;;;;;4955552;28;20262;-77
2022/07/22 03:02:02;;;;;;;13.83;11.07;;;16.10;99.90;;;;;;4955470;29;20285;-77
2022/07/22 03:04:30;;;;;;;15.90;12.07;;;16.00;99.90;;;;;;4954476;29;20241;-77
2022/07/22 03:06:57;;;;;;;15.27;11.67;;;16.00;99.90;;;;;;4954583;29;20234;-77
2022/07/22 03:09:24;;;;;;;17.30;12.23;;;16.00;99.90;;;;;;4954932;29;20290;-77
2022/07/22 03:11:51;;;;;;;13.63;12.00;;;15.90;99.90;;;;;;4955490;28;20293;-76
2022/07/22 03:14:18;;;;;;;19.53;13.17;;;15.90;99.90;;;;;;4963273;28;20240;-77
2022/07/22 03:16:47;;;;;;;15.50;12.70;;;15.90;99.90;;;;;;4954578;29;20238;-77
2022/07/22 03:19:59;;;;;;;13.97;12.07;;;15.90;99.90;;;;;;4955699;29;20230;-77
2022/07/22 03:22:27;;;;;;;15.80;12.60;;;15.90;99.90;;;;;;4955872;28;20230;-77
2022/07/22 03:24:54;;;;;;;15.43;12.17;;;15.80;99.90;;;;;;4960753;28;20242;-77
2022/07/22 03:27:21;;;;;;;19.13;13.03;;;15.80;99.90;;;;;;4974629;28;20233;-77
2022/07/22 03:29:47;;;;;;;17.93;12.10;;;15.70;99.90;;;;;;4973993;28;20238;-77
2022/07/22 03:32:14;;;;;;;20.63;12.60;;;15.70;99.90;;;;;;4963289;28;20290;-77
2022/07/22 03:34:41;;;;;;;15.80;12.50;;;15.70;99.90;;;;;;4967454;28;20753;-77
2022/07/22 03:37:08;;;;;;;16.60;11.97;;;15.60;99.90;;;;;;4970833;28;20234;-77
2022/07/22 03:39:37;;;;;;;14.33;12.70;;;15.70;99.90;;;;;;4954087;29;20305;-77
2022/07/22 03:42:04;;;;;;;15.73;12.57;;;15.60;99.90;;;;;;4954365;29;20235;-77
2022/07/22 03:44:31;;;;;;;19.03;12.53;;;15.60;99.90;;;;;;4966549;28;20285;-76
2022/07/22 03:46:58;;;;;;;16.57;12.60;;;15.60;99.90;;;;;;4964077;28;20203;-77
2022/07/22 03:49:25;;;;;;;19.17;13.27;;;15.60;99.90;;;;;;4954417;28;20537;-77
2022/07/22 03:51:52;;;;;;;15.60;12.50;;;15.60;99.90;;;;;;4954052;29;20290;-77
2022/07/22 03:54:19;;;;;;;14.87;12.63;;;15.60;99.90;;;;;;4964575;28;20294;-76
2022/07/22 03:56:47;;;;;;;15.57;13.10;;;15.50;99.90;;;;;;4962458;28;20557;-77
2022/07/22 03:59:14;;;;;;;18.17;13.10;;;15.50;99.90;;;;;;4953473;28;20322;-76
2022/07/22 04:01:41;;;;;;;16.23;13.13;;;15.50;99.90;;;;;;4954443;29;20290;-77
2022/07/22 04:04:08;;;;;;;18.00;12.73;;;15.50;99.90;;;;;;4953834;28;20203;-78
2022/07/22 04:06:35;;;;;;;18.30;12.90;;;15.50;99.90;;;;;;4954578;29;20293;-77
2022/07/22 04:09:02;;;;;;;18.67;13.90;;;15.50;99.90;;;;;;4968835;28;20294;-77
2022/07/22 04:11:29;;;;;;;17.07;14.10;;;15.50;99.90;;;;;;4954313;28;20302;-77
2022/07/22 04:13:57;;;;;;;19.03;13.83;;;15.50;99.90;;;;;;4954881;28;20206;-76
2022/07/22 04:16:24;;;;;;;15.27;13.67;;;15.50;99.90;;;;;;4954630;29;20210;-77
2022/07/22 04:18:51;;;;;;;20.37;14.40;;;15.60;99.90;;;;;;4954146;29;20290;-77
2022/07/22 04:21:18;;;;;;;17.23;13.63;;;15.60;99.90;;;;;;4954390;28;20262;-77
2022/07/22 04:23:44;;;;;;;17.90;13.40;;;15.60;99.90;;;;;;4954340;29;20239;-77
2022/07/22 04:26:11;;;;;;;16.60;13.63;;;15.60;99.90;;;;;;4953970;28;20290;-77
2022/07/22 04:28:38;;;;;;;15.87;13.33;;;15.50;99.90;;;;;;4972442;28;20241;-77
2022/07/22 04:31:07;;;;;;;17.43;13.43;;;15.60;99.90;;;;;;4954963;28;20226;-77
2022/07/22 04:33:34;;;;;;;18.87;13.70;;;15.60;99.90;;;;;;4953688;28;20246;-77
2022/07/22 04:36:01;;;;;;;17.50;14.17;;;15.70;99.90;;;;;;4954264;29;20234;-77
2022/07/22 04:38:28;;;;;;;16.90;13.83;;;15.80;99.90;;;;;;4954320;28;20259;-76
2022/07/22 04:40:55;;;;;;;16.00;13.30;;;15.90;99.90;;;;;;4953470;28;20411;-77
2022/07/22 04:43:22;;;;;;;18.00;14.33;;;16.00;99.90;;;;;;4952998;28;20234;-77
2022/07/22 04:45:49;;;;;;;17.57;13.87;;;16.00;99.90;;;;;;4953852;29;20258;-77
2022/07/22 04:48:17;;;;;;;18.63;13.70;;;16.20;99.90;;;;;;4953198;28;20282;-77
2022/07/22 04:50:44;;;;;;;16.13;13.47;;;16.10;99.90;;;;;;4954070;29;20286;-77
2022/07/22 04:53:11;;;;;;;15.63;13.70;;;16.20;99.90;;;;;;4953819;29;20238;-77
2022/07/22 04:55:38;;;;;;;15.93;14.23;;;16.20;99.90;;;;;;4954153;29;20235;-77
2022/07/22 04:58:05;;;;;;;15.63;13.53;;;16.20;99.90;;;;;;4946904;28;20271;-77
2022/07/22 05:00:32;;;;;;;17.40;14.13;;;16.30;99.90;;;;;;4939814;29;20255;-78
2022/07/22 05:02:59;;;;;;;15.73;13.60;;;16.30;99.90;;;;;;4937479;29;20295;-77
2022/07/22 05:05:27;;;;;;;15.03;12.90;;;16.30;99.90;;;;;;4939612;29;20288;-77
2022/07/22 05:07:54;;;;;;;15.43;13.83;;;16.40;99.90;;;;;;4937692;29;20239;-77
2022/07/22 05:10:21;;;;;;;18.47;13.90;;;16.50;99.90;;;;;;4937663;29;20671;-77
2022/07/22 05:12:48;;;;;;;15.73;13.20;;;16.50;99.90;;;;;;4937751;29;21137;-76
2022/07/22 05:15:15;;;;;;;16.73;13.70;;;16.50;99.90;;;;;;4937937;29;20299;-75
2022/07/22 05:17:42;;;;;;;20.10;13.90;;;16.60;99.90;;;;;;4938135;29;20204;-75
2022/07/22 05:20:10;;;;;;;17.47;14.50;;;16.50;99.90;;;;;;4937568;29;20310;-75
2022/07/22 05:22:38;;;;;;;18.17;14.33;;;16.60;99.90;;;;;;4938055;29;20279;-77
2022/07/22 05:25:06;;;;;;;16.43;13.83;;;16.50;99.90;;;;;;4937660;29;20250;-77
2022/07/22 05:27:33;;;;;;;19.07;14.70;;;16.50;99.90;;;;;;4943675;29;20291;-77
2022/07/22 05:30:00;;;;;;;18.17;14.10;;;16.60;99.90;;;;;;4950375;29;20230;-76
2022/07/22 05:32:27;;;;;;;19.37;14.67;;;16.70;99.90;;;;;;4957043;29;20258;-76
2022/07/22 05:34:53;;;;;;;16.73;14.17;;;16.70;99.90;;;;;;4950960;29;20231;-76
2022/07/22 05:37:20;;;;;;;17.00;14.17;;;16.60;99.90;;;;;;4937768;29;20231;-76
2022/07/22 05:39:49;;;;;;;16.47;14.13;;;16.60;99.90;;;;;;4937463;29;20258;-76
2022/07/22 05:42:16;;;;;;;16.33;14.17;;;16.60;99.90;;;;;;4937353;29;20235;-76
2022/07/22 05:44:43;;;;;;;16.10;14.40;;;16.60;99.90;;;;;;4936862;29;20212;-77
2022/07/22 05:47:09;;;;;;;19.60;15.00;;;16.60;99.90;;;;;;4937866;29;20226;-77
2022/07/22 05:49:36;;;;;;;18.20;14.93;;;16.60;99.90;;;;;;4931858;29;20251;-77
2022/07/22 05:52:04;;;;;;;20.47;14.30;;;16.70;99.90;;;;;;4935465;29;20232;-77
2022/07/22 05:54:31;;;;;;;20.40;14.43;;;16.90;99.90;;;;;;4936724;29;20724;-77
2022/07/22 05:56:59;;;;;;;21.40;15.40;;;17.10;99.90;;;;;;4936361;29;20578;-77
2022/07/22 05:59:26;;;;;;;20.53;14.90;;;17.10;99.90;;;;;;4958513;28;20742;-77
2022/07/22 06:01:53;;;;;;;20.70;14.40;;;17.30;99.90;;;;;;4963398;28;20313;-77
2022/07/22 06:04:20;;;;;;;16.67;14.93;;;17.40;99.90;;;;;;4951007;28;20286;-77
2022/07/22 06:06:47;;;;;;;16.73;13.93;;;17.60;99.90;;;;;;4966373;28;20690;-77
2022/07/22 06:09:14;;;;;;;17.60;14.50;;;17.80;99.90;;;;;;4949258;28;20199;-77
2022/07/22 06:11:41;;;;;;;15.47;13.77;;;18.00;99.90;;;;;;4954813;28;20207;-77
2022/07/22 06:14:09;;;;;;;17.03;12.87;;;18.20;99.90;;;;;;4955527;29;20306;-77
2022/07/22 06:16:37;;;;;;;16.48;12.73;;;18.60;99.90;;;;;;4955130;29;20258;-77
2022/07/22 06:19:04;;;;;;;15.60;12.75;;;18.80;99.90;;;;;;4954822;29;20214;-77
2022/07/22 06:21:31;;;;;;;14.40;12.57;;;19.20;99.90;;;;;;4954945;28;20219;-77
2022/07/22 06:23:58;;;;;;;14.75;12.55;;;19.10;99.90;;;;;;4954494;28;20302;-77
2022/07/22 06:26:25;;;;;;;16.42;12.60;;;19.70;99.90;;;;;;4955751;28;20203;-77
2022/07/22 06:28:52;;;;;;;12.63;11.27;;;19.90;99.90;;;;;;4958034;28;20238;-77
2022/07/22 06:31:21;;;;;;;13.70;12.00;;;20.00;99.90;;;;;;4954297;28;22016;-76
2022/07/22 06:33:47;;;;;;;15.85;11.65;;;19.90;99.90;;;;;;4971498;28;20233;-77
2022/07/22 06:36:15;;;;;;;14.68;12.32;;;19.70;99.90;;;;;;4955049;28;20248;-77
2022/07/22 06:38:42;;;;;;;13.48;12.10;;;19.60;99.90;;;;;;4954984;29;20710;-76
2022/07/22 06:41:08;;;;;;;13.45;12.00;;;19.40;99.90;;;;;;4954266;28;20250;-76
2022/07/22 06:43:35;;;;;;;14.70;12.52;;;19.40;99.90;;;;;;4954953;29;20550;-76
2022/07/22 06:46:02;;;;;;;15.10;12.93;;;19.30;99.90;;;;;;4954883;28;20234;-77
2022/07/22 06:48:31;;;;;;;14.07;12.68;;;19.20;99.90;;;;;;4955729;29;20294;-77
2022/07/22 06:50:57;;;;;;;14.35;11.98;;;19.20;99.90;;;;;;4954611;29;20203;-77
2022/07/22 06:53:24;;;;;;;14.43;11.80;;;19.20;99.90;;;;;;4958378;28;20242;-77
2022/07/22 06:55:51;;;;;;;15.40;12.90;;;19.20;99.90;;;;;;4974872;28;20206;-77
2022/07/22 06:58:18;;;;;;;14.48;12.73;;;19.20;99.90;;;;;;4962600;28;20334;-76
2022/07/22 07:00:45;;;;;;;20.08;13.05;;;19.20;99.90;;;;;;4936077;29;20322;-76
2022/07/22 07:03:12;;;;;;;16.15;12.43;;;18.60;99.90;;;;;;4935593;29;20710;-76
2022/07/22 07:05:40;;;;;;;15.88;13.10;;;18.70;99.90;;;;;;4935438;29;20722;-76
2022/07/22 07:08:07;;;;;;;17.83;13.98;;;18.70;99.90;;;;;;4935218;29;20691;-77
2022/07/22 07:10:34;;;;;;;17.15;13.52;;;18.80;99.90;;;;;;4935156;29;20240;-76
2022/07/22 07:13:01;;;;;;;15.88;13.80;;;18.70;99.90;;;;;;4935464;29;20243;-76
2022/07/22 07:15:28;;;;;;;15.25;13.57;;;18.80;99.90;;;;;;4935285;29;20290;-76
2022/07/22 07:17:57;;;;;;;14.50;13.00;;;19.10;99.90;;;;;;4935929;29;20294;-76
2022/07/22 07:20:24;;;;;;;18.95;13.23;;;19.50;99.90;;;;;;4935653;29;20227;-76
2022/07/22 07:22:53;;;;;;;15.25;13.00;;;20.40;99.90;;;;;;4934779;29;20211;-76
2022/07/22 07:25:20;;;;;;;16.77;13.00;;;21.50;99.90;;;;;;4935791;29;20208;-76
2022/07/22 07:27:47;;;;;;;15.40;12.40;;;21.40;99.90;;;;;;4935265;29;20214;-76
2022/07/22 07:30:14;;;;;;;13.00;11.60;;;21.70;99.90;;;;;;4935237;29;20238;-76
2022/07/22 07:32:41;;;;;;;12.40;11.10;;;21.80;99.90;;;;;;4934762;29;20235;-76
2022/07/22 07:35:08;;;;;;;13.77;10.95;;;22.40;99.90;;;;;;4935049;29;20291;-76
2022/07/22 07:37:36;;;;;;;14.15;12.75;;;22.20;99.90;;;;;;4918041;29;20210;-76
2022/07/22 07:40:05;;;;;;;13.82;11.40;;;21.60;99.90;;;;;;4931220;29;20739;-76
2022/07/22 07:42:32;;;;;;;14.52;12.77;;;21.60;99.90;;;;;;4934335;29;20203;-77
2022/07/22 07:44:59;;;;;;;16.27;12.40;;;21.50;99.90;;;;;;4934144;29;20295;-76
2022/07/22 07:47:26;;;;;;;15.13;11.93;;;21.40;99.90;;;;;;4935283;29;20282;-77
2022/07/22 07:49:53;;;;;;;14.02;12.35;;;21.30;99.90;;;;;;4933832;28;20231;-77
2022/07/22 07:52:20;;;;;;;13.77;12.15;;;21.30;99.90;;;;;;4934725;29;20308;-77
2022/07/22 07:54:47;;;;;;;15.85;12.30;;;21.60;99.90;;;;;;4934597;29;20211;-76
2022/07/22 07:57:16;;;;;;;15.95;12.25;;;22.00;99.90;;;;;;4933680;28;20199;-76
2022/07/22 07:59:43;;;;;;;16.02;11.35;;;22.10;99.90;;;;;;4954458;29;20203;-76
2022/07/22 08:02:10;;;;;;;19.77;12.35;;;22.20;99.90;;;;;;4953362;28;20255;-76
2022/07/22 08:04:37;;;;;;;13.75;12.35;;;22.10;99.90;;;;;;4954057;28;20287;-77
2022/07/22 08:07:05;;;;;;;18.85;12.38;;;22.00;99.90;;;;;;4953839;29;21782;-77
2022/07/22 08:09:35;;;;;;;13.10;11.80;;;21.90;99.90;;;;;;4952759;28;20235;-77
2022/07/22 08:12:02;;;;;;;12.32;10.82;;;23.50;99.90;;;;;;4954091;28;20195;-77
2022/07/22 08:14:30;;;;;;;11.75;10.50;;;25.70;99.90;;;;;;4954462;29;20246;-77
2022/07/22 08:16:57;;;;;;;13.77;11.18;;;26.70;99.90;;;;;;4954305;28;20234;-77
2022/07/22 08:19:24;;;;;;;16.60;10.98;;;26.50;99.90;;;;;;4953093;28;20670;-77
2022/07/22 08:21:51;;;;;;;15.45;11.77;;;25.60;99.90;;;;;;4952803;29;20255;-77
2022/07/22 08:24:18;;;;;;;12.63;11.07;;;24.70;99.90;;;;;;4954338;29;20235;-77
2022/07/22 08:26:45;;;;;;;12.45;10.30;;;24.60;99.90;;;;;;4953625;28;20211;-76
2022/07/22 08:29:12;;;;;;;12.98;10.60;;;24.50;99.90;;;;;;4953102;29;20207;-77
2022/07/22 08:31:40;;;;;;;14.40;10.60;;;24.80;99.90;;;;;;4953222;29;20235;-76
2022/07/22 08:34:07;;;;;;;15.00;11.15;;;25.60;99.90;;;;;;4956708;28;20661;-77
2022/07/22 08:36:34;;;;;;;12.32;11.02;;;25.50;99.90;;;;;;4957151;29;20241;-76
2022/07/22 08:39:01;;;;;;;11.93;10.68;;;25.20;99.90;;;;;;4957458;29;20234;-77
2022/07/22 08:41:30;;;;;;;14.00;10.50;;;24.90;99.90;;;;;;4963807;28;20337;-77
2022/07/22 08:43:58;;;;;;;15.02;10.88;;;24.60;99.90;;;;;;4953108;28;20230;-77
2022/07/22 08:46:25;;;;;;;18.65;11.02;;;24.30;99.90;;;;;;4957285;28;20622;-77
2022/07/22 08:48:54;;;;;;;12.85;10.98;;;24.10;99.90;;;;;;4956820;28;20286;-76
2022/07/22 08:51:21;;;;;;;14.32;10.77;;;24.10;99.90;;;;;;4962201;28;20195;-76
2022/07/22 08:53:48;;;;;;;14.45;10.98;;;23.90;99.90;;;;;;4957038;28;20203;-77
2022/07/22 08:56:15;;;;;;;17.52;10.52;;;23.90;99.90;;;;;;4956894;28;20295;-76
2022/07/22 08:58:43;;;;;;;18.92;10.75;;;24.00;99.90;;;;;;4927396;29;20271;-77
2022/07/22 09:01:11;;;;;;;12.45;11.15;;;24.10;99.90;;;;;;4937571;29;20311;-77
2022/07/22 09:03:47;;;;;;;12.65;10.93;;;24.20;99.90;;;;;;4937435;29;20286;-77
2022/07/22 09:06:17;;;;;;;14.95;10.63;;;24.00;99.90;;;;;;4937553;29;20202;-77
2022/07/22 09:09:03;;;;;;;15.02;11.52;;;24.70;99.90;;;;;;4937372;29;20219;-77
2022/07/22 09:11:31;;;;;;;13.00;11.70;;;25.20;99.90;;;;;;4937985;29;20278;-77
2022/07/22 09:14:00;;;;;;;11.80;10.55;;;24.90;99.90;;;;;;4937172;29;20231;-77
2022/07/22 09:16:41;;;;;;;16.13;11.10;;;25.30;99.90;;;;;;4938473;29;20227;-77
2022/07/22 09:19:09;;;;;;;12.55;10.05;;;26.60;99.90;;;;;;4936568;29;20672;-77
2022/07/22 09:21:40;;;;;;;12.52;11.18;;;27.60;99.90;;;;;;4937569;29;20291;-77
2022/07/22 09:24:09;;;;;;;14.27;10.60;;;27.70;99.90;;;;;;4936781;29;20263;-78
2022/07/22 09:26:37;;;;;;;11.43;10.05;;;27.00;99.90;;;;;;4937434;29;20223;-77
2022/07/22 09:29:06;;;;;;;13.70;10.52;;;26.30;99.90;;;;;;4936962;29;20211;-77
2022/07/22 09:31:34;;;;;;;12.50;11.00;;;26.20;99.90;;;;;;4937476;29;20238;-77
2022/07/22 09:34:02;;;;;;;12.57;11.25;;;26.20;99.90;;;;;;4936517;29;20212;-77
2022/07/22 09:36:30;;;;;;;12.10;10.80;;;26.20;99.90;;;;;;4936795;29;20242;-77
2022/07/22 09:38:58;;;;;;;12.70;10.65;;;25.60;99.90;;;;;;4936702;29;20200;-77
2022/07/22 09:41:25;;;;;;;12.30;10.80;;;25.30;99.90;;;;;;4937414;29;20266;-77
2022/07/22 09:43:52;;;;;;;12.55;11.25;;;24.80;99.90;;;;;;4936668;29;20235;-77
2022/07/22 09:46:35;;;;;;;12.25;10.82;;;24.20;99.90;;;;;;4936756;29;20231;-77
2022/07/22 09:49:02;;;;;;;11.73;10.60;;;23.60;99.90;;;;;;4940058;29;20199;-77
2022/07/22 09:51:31;;;;;;;11.80;10.55;;;23.10;99.90;;;;;;4937271;29;20291;-77
2022/07/22 09:53:59;;;;;;;11.75;10.00;;;22.80;99.90;;;;;;4936117;29;20239;-77
2022/07/22 09:56:29;;;;;;;11.65;10.45;;;22.60;99.90;;;;;;4940706;29;20301;-76
2022/07/22 09:58:56;;;;;;;15.02;10.85;;;22.40;99.90;;;;;;4948958;28;20242;-77
2022/07/22 10:01:24;;;;;;;13.07;10.30;;;22.00;99.90;;;;;;4956239;28;20399;-77
2022/07/22 10:03:54;;;;;;;13.32;10.43;;;21.30;99.90;;;;;;4969547;28;20217;-76
2022/07/22 10:06:21;;;;;;;13.07;11.30;;;21.00;99.90;;;;;;4958699;28;20290;-76
2022/07/22 10:08:49;;;;;;;17.38;11.15;;;20.70;99.90;;;;;;4955790;28;21633;-77
2022/07/22 10:11:18;;;;;;;15.90;11.30;;;20.60;99.90;;;;;;4956801;28;20234;-76
2022/07/22 10:13:46;;;;;;;18.33;12.50;;;20.40;99.90;;;;;;4962697;28;20311;-77
2022/07/22 10:16:13;;;;;;;17.40;12.80;;;20.10;99.90;;;;;;4954234;28;20683;-77
2022/07/22 10:18:46;;;;;;;14.68;13.05;;;20.00;99.90;;;;;;4955691;29;20258;-76
2022/07/22 10:21:14;;;;;;;16.27;13.35;;;19.70;99.90;;;;;;4955468;29;20302;-77
2022/07/22 10:24:08;;;;;;;16.77;13.00;;;19.70;99.90;;;;;;4968203;28;20666;-76
2022/07/22 10:26:52;;;;;;;15.73;12.57;;;19.90;99.90;;;;;;4954716;28;20639;-76
2022/07/22 10:29:26;;;;;;;17.10;13.95;;;19.70;99.90;;;;;;4953577;28;20235;-77
2022/07/22 10:32:25;;;;;;;16.52;13.82;;;19.60;99.90;;;;;;4954881;28;20693;-74
2022/07/22 10:35:23;;;;;;;16.08;14.38;;;19.70;99.90;;;;;;4960705;28;20210;-75
2022/07/22 10:37:54;;;;;;;16.77;14.07;;;19.40;99.90;;;;;;4955065;29;20296;-74
2022/07/22 10:40:24;;;;;;;18.73;13.18;;;19.50;99.90;;;;;;4952501;28;20221;-76
2022/07/22 10:43:11;;;;;;;14.93;13.00;;;19.50;99.90;;;;;;4940144;28;20222;-75
2022/07/22 10:45:50;;;;;;;18.30;13.50;;;19.70;99.90;;;;;;4955056;29;20290;-76
2022/07/22 10:48:19;;;;;;;17.15;14.23;;;19.70;99.90;;;;;;4953489;28;20349;-75
2022/07/22 10:50:54;;;;;;;19.40;14.07;;;19.50;99.90;;;;;;4953713;28;20303;-74
2022/07/22 10:53:25;;;;;;;18.15;13.88;;;19.30;99.90;;;;;;4937767;29;20202;-74
2022/07/22 10:56:20;;;;;;;17.98;13.55;;;19.20;99.90;;;;;;4953302;28;20195;-75
2022/07/22 10:58:54;;;;;;;19.08;14.45;;;19.20;99.90;;;;;;4940941;28;20283;-75
2022/07/22 11:01:25;;;;;;;17.08;13.35;;;19.40;99.90;;;;;;4935142;29;20259;-74
2022/07/22 11:03:53;;;;;;;15.32;13.45;;;19.50;99.90;;;;;;4935201;29;20212;-74
2022/07/22 11:06:26;;;;;;;17.77;13.60;;;19.50;99.90;;;;;;4942044;29;20634;-74
2022/07/22 11:08:56;;;;;;;16.17;14.48;;;19.70;99.90;;;;;;4939459;29;20629;-74
2022/07/22 11:11:34;;;;;;;19.17;14.40;;;19.70;99.90;;;;;;4932215;29;20251;-74
2022/07/22 11:14:03;;;;;;;17.40;14.27;;;19.50;99.90;;;;;;4931781;29;20216;-74
2022/07/22 11:16:30;;;;;;;16.48;14.38;;;19.60;99.90;;;;;;4932258;29;20231;-74
2022/07/22 11:19:02;;;;;;;22.73;15.00;;;19.50;99.90;;;;;;4934105;29;20219;-74
2022/07/22 11:21:32;;;;;;;16.77;14.10;;;19.40;99.90;;;;;;4933489;29;20207;-74
2022/07/22 11:24:01;;;;;;;18.70;15.13;;;19.50;99.90;;;;;;4932070;29;20204;-74
2022/07/22 11:26:40;;;;;;;16.65;14.88;;;19.70;99.90;;;;;;4929388;29;20242;-74
2022/07/22 11:29:10;;;;;;;19.23;14.50;;;19.80;99.90;;;;;;4936948;29;20901;-74
2022/07/22 11:31:38;;;;;;;16.83;14.55;;;20.10;99.90;;;;;;4934674;29;20735;-74
2022/07/22 11:34:07;;;;;;;17.00;15.20;;;20.10;99.90;;;;;;4940730;29;20211;-74
2022/07/22 11:36:35;;;;;;;17.55;15.52;;;20.10;99.90;;;;;;4929384;29;20208;-74
2022/07/22 11:39:03;;;;;;;17.67;15.77;;;20.10;99.90;;;;;;4933581;29;20235;-74
2022/07/22 11:41:31;;;;;;;17.88;16.00;;;20.10;99.90;;;;;;4933891;29;20215;-74
2022/07/22 11:44:00;;;;;;;13.57;12.27;;;20.00;99.90;;;;;;4934301;29;20639;-73
2022/07/22 11:46:29;;;;;;;16.85;14.27;;;20.10;99.90;;;;;;4934270;29;20231;-74
2022/07/22 11:49:00;;;;;;;17.48;15.63;;;20.10;99.90;;;;;;4932615;29;20307;-74
2022/07/22 11:51:31;;;;;;;19.13;15.90;;;20.00;99.90;;;;;;4941234;29;20203;-74
2022/07/22 11:53:58;;;;;;;18.83;16.35;;;20.00;99.90;;;;;;4936514;29;20567;-74
2022/07/22 11:56:26;;;;;;;18.60;16.60;;;20.10;99.90;;;;;;4939886;29;20227;-74
2022/07/22 11:58:55;;;;;;;20.13;16.60;;;20.40;99.90;;;;;;4936675;29;20710;-74
2022/07/22 12:01:24;;;;;;;21.30;17.42;;;20.50;99.90;;;;;;4935322;29;20282;-75
2022/07/22 12:03:56;;;;;;;20.73;17.77;;;20.20;99.90;;;;;;4947229;29;20199;-75
2022/07/22 12:06:24;;;;;;;20.80;17.85;;;20.40;99.90;;;;;;4933405;29;20295;-76
2022/07/22 12:08:53;;;;;;;22.08;18.85;;;20.40;99.90;;;;;;4919416;29;20235;-75
2022/07/22 12:11:24;;;;;;;25.88;19.65;;;20.20;99.90;;;;;;4937073;28;20257;-75
2022/07/22 12:13:53;;;;;;;20.08;17.60;;;20.50;99.90;;;;;;4932403;29;20223;-74
2022/07/22 12:16:26;;;;;;;22.15;19.75;;;20.70;99.90;;;;;;4932218;29;20449;-74
2022/07/22 12:18:57;;;;;;;20.60;17.98;;;20.80;99.90;;;;;;4932371;29;20204;-74
2022/07/22 12:21:26;;;;;;;20.80;18.38;;;20.80;99.90;;;;;;4933414;29;20204;-74
2022/07/22 12:23:55;;;;;;;21.42;19.20;;;20.60;99.90;;;;;;4931798;29;20808;-74
2022/07/22 12:26:38;;;;;;;23.80;20.08;;;20.30;99.90;;;;;;4937567;29;20203;-74
2022/07/22 12:29:21;;;;;;;23.40;20.90;;;20.20;99.90;;;;;;4932715;29;20916;-74
2022/07/22 12:31:49;;;;;;;23.77;20.48;;;20.10;99.90;;;;;;4936636;29;20299;-74
2022/07/22 12:34:29;;;;;;;23.05;20.55;;;20.20;99.90;;;;;;4932523;29;20263;-74